Cedar Grove, TN (38321)

12:14 PM CST on February 01, 2015 (GMT -0600)
SW Huntingdon | Change Station
CLOSE
Current Station
Personal Weather Station
Location: Huntingdon, TN
Elevation: 410 ft
Nearby Weather Stations

Elev 410 ft 35.99 °N, 88.44 °W | Updated 10 seconds ago

Rain
Rain
51.3 °F
Feels Like 51.3 °F
N
3.7
Wind Variable Wind from SSW
Gusts 12.5 mph

Today
High -- | Low -- °F
--% Chance of Precip.
Yesterday
High -- | Low -- °F
Precip. -- in
6:54 AM 5:21 PM
Waxing Gibbous, 95% visible
Pressure 29.76 in
Visibility 5.0 miles
Clouds Mostly Cloudy 1000 ft
Overcast 1400 ft
Dew Point 49 °F
Humidity 93%
Rainfall 0.54 in
Snow Depth Not available.
UV 1 out of 12
Pollen 1.90 out of 12
Air Quality Not available.
Flu Activity Not available.
SPECI KMKL 011800Z 18011KT 5SM -RA BR BKN010 OVC014 11/10 A2976 RMK AO2 CIG 007V012 P0001 T01110100

More Conditions Fewer Conditions

Pressure 29.76 in
Visibility 5.0 miles
Clouds Mostly Cloudy 1000 ft
Overcast 1400 ft
Dew Point 49 °F
Humidity 93%
Rainfall 0.54 in
Snow Depth Not available.
UV 1 out of 12
Pollen 1.90 out of 12
Air Quality Not available.
Flu Activity Not available.
SPECI KMKL 011800Z 18011KT 5SM -RA BR BKN010 OVC014 11/10 A2976 RMK AO2 CIG 007V012 P0001 T01110100

More Conditions Fewer Conditions

10-Day Weather Forecast

Almanac

Astronomy

Feb. 01, 2015 Rise Set
Actual Time
Civil Twilight
Nautical Twilight
Astronomical Twilight
Moon
Length of Visible Light
Length of Day
Tomorrow will be .
, % of the Moon is Illuminated

Today's Extremes

State Highs State Lows

Community

WunderPhotos

Upload Photos

1,792,420 photos uploaded!

WunderBlogs® & News

Nearby

Air Quality

  Air Quality AQ Index Pollutant
Not available.

Snow Depth

Station Depth Elevation

Earthquake Activity

City Distance Mag. Time & Date
Minimum magnitude displayed is 2.5.

Coastal Water Temperatures

Place Temperature

Nearby Weather Stations